Time;durP1;ratioP1;P1;durP2;ratioP2;P2;SDS_P1;SDS_P2;PMS_P1;PMS_P2;Temp;Humidity;BMP_temperature;BMP_pressure;BME280_temperature;BME280_humidity;BME280_pressure;Samples;Min_cycle;Max_cycle;Signal;HPM_P1;HPM_P2
2022/08/12 00:45:19;;;;;;;2.72;2.53;;;16.20;92.00;;;;;;5023767;28;20067;-72
2022/08/12 00:47:52;;;;;;;5.80;2.78;;;16.10;92.30;;;;;;5005370;28;20037;-71
2022/08/12 00:50:26;;;;;;;3.30;2.83;;;16.00;92.50;;;;;;5024787;28;20042;-71
2022/08/12 00:52:59;;;;;;;2.97;2.67;;;16.00;92.70;;;;;;5020148;28;20045;-70
2022/08/12 00:55:26;;;;;;;4.90;2.50;;;15.90;92.80;;;;;;4979496;28;20038;-71
2022/08/12 00:58:00;;;;;;;2.97;2.75;;;15.90;93.10;;;;;;4995737;28;20085;-72
2022/08/12 01:00:34;;;;;;;4.20;3.05;;;15.80;93.30;;;;;;5022315;28;20057;-71
2022/08/12 01:03:09;;;;;;;3.17;2.88;;;15.80;93.50;;;;;;5005636;28;20066;-71
2022/08/12 01:11:31;;;;;;;3.88;2.92;;;15.90;93.50;;;;;;5025313;28;20045;-71
2022/08/12 01:14:03;;;;;;;3.92;2.33;;;15.80;93.70;;;;;;5015360;28;20076;-71
2022/08/12 01:16:30;;;;;;;3.20;2.90;;;15.80;93.80;;;;;;5026476;28;20044;-71
2022/08/12 01:19:03;;;;;;;3.00;2.70;;;15.80;93.90;;;;;;5005015;28;20046;-71
2022/08/12 01:21:59;;;;;;;3.37;2.90;;;15.70;94.10;;;;;;5005443;28;20530;-71
2022/08/12 01:24:50;;;;;;;3.20;2.90;;;15.70;94.30;;;;;;5019340;28;20046;-70
2022/08/12 01:27:20;;;;;;;3.80;3.50;;;15.60;94.60;;;;;;5022992;28;20056;-71
2022/08/12 01:29:54;;;;;;;3.92;3.55;;;15.50;94.70;;;;;;5002656;28;20057;-71
2022/08/12 01:32:27;;;;;;;3.42;3.13;;;15.50;94.90;;;;;;5021468;28;20044;-71
2022/08/12 01:35:04;;;;;;;3.55;3.25;;;15.50;95.10;;;;;;4995864;28;20046;-70
2022/08/12 01:37:47;;;;;;;4.95;4.15;;;15.50;95.20;;;;;;5000209;28;20507;-71
2022/08/12 01:40:15;;;;;;;4.68;3.55;;;15.40;95.40;;;;;;5023300;28;20451;-71
2022/08/12 01:42:50;;;;;;;3.85;3.55;;;15.40;95.50;;;;;;5026343;28;20051;-71
2022/08/12 01:45:23;;;;;;;3.80;3.45;;;15.30;95.70;;;;;;5004364;28;20053;-71
2022/08/12 01:48:18;;;;;;;5.03;4.53;;;15.20;95.90;;;;;;5021984;28;20443;-72
2022/08/12 01:51:21;;;;;;;7.03;3.60;;;15.10;96.30;;;;;;5024124;28;20042;-71
2022/08/12 01:53:54;;;;;;;5.05;4.18;;;15.00;96.70;;;;;;5011154;28;20044;-71
2022/08/12 01:56:33;;;;;;;4.35;3.95;;;15.00;97.00;;;;;;5014388;28;20054;-71
2022/08/12 02:01:54;;;;;;;4.80;3.95;;;14.90;97.60;;;;;;5023411;28;20042;-71
2022/08/12 02:11:17;;;;;;;5.63;4.05;;;14.80;98.20;;;;;;5024466;28;20480;-71
2022/08/12 02:14:06;;;;;;;4.13;3.58;;;14.70;98.50;;;;;;5010755;28;20096;-71
2022/08/12 02:16:37;;;;;;;3.97;3.47;;;14.70;98.80;;;;;;5012886;28;20069;-71
2022/08/12 02:19:33;;;;;;;4.13;3.55;;;14.70;99.00;;;;;;5011479;28;20040;-71
2022/08/12 02:22:27;;;;;;;5.18;3.67;;;14.70;99.20;;;;;;5022686;28;20086;-71
2022/08/12 02:25:06;;;;;;;4.50;3.70;;;14.70;99.40;;;;;;5022354;28;20060;-71
2022/08/12 02:27:44;;;;;;;3.60;3.30;;;14.70;99.60;;;;;;5021595;28;20124;-71
2022/08/12 02:30:22;;;;;;;4.28;3.10;;;14.60;99.90;;;;;;5015443;28;20061;-71
2022/08/12 02:32:55;;;;;;;4.35;3.45;;;14.60;99.90;;;;;;5009082;28;20080;-71
2022/08/12 02:35:29;;;;;;;3.88;3.33;;;14.60;99.90;;;;;;5013080;28;20571;-71
2022/08/12 02:38:04;;;;;;;4.65;4.22;;;14.50;99.90;;;;;;4989438;28;20434;-71
2022/08/12 02:40:38;;;;;;;4.95;3.30;;;14.60;99.90;;;;;;5023691;28;20121;-70
2022/08/12 02:43:26;;;;;;;4.65;3.33;;;14.50;99.90;;;;;;5012123;28;20069;-71
2022/08/12 02:46:03;;;;;;;5.43;3.58;;;14.50;99.90;;;;;;5001159;28;20128;-71
2022/08/12 02:48:56;;;;;;;4.13;3.58;;;14.60;99.90;;;;;;5019910;28;20114;-71
2022/08/12 02:51:33;;;;;;;4.00;3.60;;;14.50;99.90;;;;;;5037352;23;20064;-71
2022/08/12 02:54:06;;;;;;;4.50;3.30;;;14.50;99.90;;;;;;5038825;28;20041;-71
2022/08/12 02:56:40;;;;;;;4.10;3.60;;;14.40;99.90;;;;;;5046318;28;20045;-71
2022/08/12 02:59:15;;;;;;;5.80;3.95;;;14.30;99.90;;;;;;5016362;28;20055;-70
2022/08/12 03:01:52;;;;;;;3.78;3.38;;;14.30;99.90;;;;;;5042778;28;20048;-71
2022/08/12 03:04:36;;;;;;;5.55;3.35;;;14.30;99.90;;;;;;5038743;28;20045;-71
2022/08/12 03:07:13;;;;;;;5.82;4.13;;;14.20;99.90;;;;;;5040025;28;20037;-71
2022/08/12 03:09:50;;;;;;;5.13;3.63;;;14.10;99.90;;;;;;5038528;28;20042;-70
2022/08/12 03:12:23;;;;;;;5.20;3.35;;;14.10;99.90;;;;;;5017366;28;20042;-71
2022/08/12 03:14:57;;;;;;;4.45;3.35;;;14.10;99.90;;;;;;5045001;28;20043;-71
2022/08/12 03:17:37;;;;;;;7.00;4.50;;;14.10;99.90;;;;;;5033013;28;20056;-69
2022/08/12 03:20:15;;;;;;;4.10;3.40;;;14.10;99.90;;;;;;5028710;28;20037;-71
2022/08/12 03:22:49;;;;;;;3.78;3.47;;;14.10;99.90;;;;;;5015902;28;20052;-69
2022/08/12 03:25:26;;;;;;;5.38;3.92;;;14.00;99.90;;;;;;5045433;28;20045;-70
2022/08/12 03:27:56;;;;;;;4.47;3.30;;;14.00;99.90;;;;;;5040065;28;20479;-69
2022/08/12 03:30:31;;;;;;;4.00;3.60;;;14.00;99.90;;;;;;5039886;28;20049;-69
2022/08/12 03:33:05;;;;;;;4.97;3.75;;;14.00;99.90;;;;;;5024759;28;20507;-69
2022/08/12 03:35:41;;;;;;;4.93;2.90;;;14.00;99.90;;;;;;5023071;28;20133;-70
2022/08/12 03:38:15;;;;;;;5.15;3.80;;;14.30;99.90;;;;;;5053433;28;20045;-70
2022/08/12 04:01:26;;;;;;;4.07;3.53;;;13.90;99.90;;;;;;5034219;28;20384;-70
2022/08/12 04:04:00;;;;;;;3.60;3.30;;;13.80;99.90;;;;;;5050182;28;20037;-70
2022/08/12 04:06:34;;;;;;;6.28;4.80;;;13.80;99.90;;;;;;5054361;28;20036;-70
2022/08/12 04:09:05;;;;;;;5.43;3.85;;;13.70;99.90;;;;;;5041385;28;20511;-70
2022/08/12 04:14:30;;;;;;;4.30;3.75;;;13.70;99.90;;;;;;5050349;28;20047;-69
2022/08/12 04:17:02;;;;;;;4.40;4.00;;;13.70;99.90;;;;;;5036512;28;20049;-70
2022/08/12 04:19:36;;;;;;;4.40;3.85;;;13.60;99.90;;;;;;5034389;28;20044;-70
2022/08/12 04:22:08;;;;;;;3.75;3.45;;;13.60;99.90;;;;;;5018006;28;20045;-70
2022/08/12 04:24:35;;;;;;;4.03;3.63;;;13.60;99.90;;;;;;5053163;28;20053;-69
2022/08/12 04:27:10;;;;;;;4.82;4.00;;;13.60;99.90;;;;;;5034793;28;20045;-70
2022/08/12 04:29:43;;;;;;;4.50;4.10;;;13.70;99.90;;;;;;5016291;28;20545;-70
2022/08/12 04:32:15;;;;;;;4.78;4.32;;;13.60;99.90;;;;;;5038325;28;20059;-70
2022/08/12 04:34:47;;;;;;;3.88;3.58;;;13.70;99.90;;;;;;5031009;28;20048;-70
2022/08/12 04:37:19;;;;;;;3.85;3.45;;;13.60;99.90;;;;;;5032771;28;20060;-70
2022/08/12 04:39:52;;;;;;;5.45;3.58;;;13.60;99.90;;;;;;5035955;28;20052;-70
2022/08/12 04:42:24;;;;;;;4.80;3.85;;;13.60;99.90;;;;;;5034602;28;20041;-69
2022/08/12 04:44:56;;;;;;;7.28;4.10;;;13.60;99.90;;;;;;5042108;28;20506;-70
2022/08/12 04:47:28;;;;;;;8.23;3.90;;;13.60;99.90;;;;;;5045026;28;20049;-69
2022/08/12 04:50:00;;;;;;;6.35;4.03;;;13.60;99.90;;;;;;5039300;28;20037;-70
2022/08/12 04:52:32;;;;;;;7.63;3.95;;;13.60;99.90;;;;;;5049442;28;20041;-70
2022/08/12 04:55:04;;;;;;;4.68;4.05;;;13.60;99.90;;;;;;5035172;28;20037;-70
2022/08/12 04:57:37;;;;;;;10.27;4.75;;;13.60;99.90;;;;;;5053501;28;20044;-70
2022/08/12 05:00:11;;;;;;;6.60;4.20;;;13.60;99.90;;;;;;5029717;28;20047;-70
2022/08/12 05:02:42;;;;;;;8.30;4.50;;;13.60;99.90;;;;;;5047170;28;20041;-70
2022/08/12 05:05:28;;;;;;;7.25;5.15;;;13.70;99.90;;;;;;5027009;28;20045;-70
2022/08/12 05:08:00;;;;;;;8.02;3.95;;;13.80;99.90;;;;;;5033353;28;20075;-71
2022/08/12 05:10:32;;;;;;;8.68;4.10;;;13.90;99.90;;;;;;5017736;28;20041;-70
2022/08/12 05:13:09;;;;;;;13.70;4.70;;;13.90;99.90;;;;;;5037551;28;20037;-70
2022/08/12 05:15:41;;;;;;;11.45;4.85;;;14.00;99.90;;;;;;5029257;28;20041;-70
2022/08/12 05:18:13;;;;;;;21.55;11.27;;;14.10;99.90;;;;;;5036508;28;20546;-70
2022/08/12 05:20:47;;;;;;;22.38;14.52;;;14.10;99.90;;;;;;5034934;28;20398;-70
2022/08/12 05:23:21;;;;;;;33.67;18.50;;;14.20;99.90;;;;;;5044963;28;20029;-70
2022/08/12 05:25:55;;;;;;;28.55;22.23;;;14.20;99.90;;;;;;5034597;28;20041;-70
2022/08/12 05:28:29;;;;;;;22.17;18.40;;;14.20;99.90;;;;;;5034911;28;20387;-70
2022/08/12 05:31:00;;;;;;;;;;;14.30;99.90;;;;;;5053164;28;20051;-70
2022/08/12 05:33:39;;;;;;;16.00;12.48;;;14.30;99.90;;;;;;5041198;28;20383;-70
2022/08/12 05:36:13;;;;;;;13.77;11.32;;;14.40;99.90;;;;;;5018742;28;20038;-70
2022/08/12 05:38:58;;;;;;;14.48;11.38;;;14.50;99.90;;;;;;5044407;28;20510;-70
2022/08/12 05:41:31;;;;;;;13.48;9.50;;;14.50;99.90;;;;;;5029422;28;20422;-70
2022/08/12 05:44:06;;;;;;;17.40;8.00;;;14.60;99.90;;;;;;5041943;28;20052;-70
2022/08/12 05:46:38;;;;;;;9.68;7.05;;;14.60;99.90;;;;;;5041544;28;20064;-70
2022/08/12 05:49:10;;;;;;;11.55;7.28;;;14.70;99.90;;;;;;5015747;28;20368;-69
2022/08/12 05:51:42;;;;;;;14.25;9.13;;;14.80;99.90;;;;;;5025699;28;20084;-70
2022/08/12 05:54:15;;;;;;;18.35;10.30;;;14.80;99.90;;;;;;5014600;28;20050;-70
2022/08/12 05:56:47;;;;;;;15.10;8.80;;;14.90;99.90;;;;;;5026459;28;20041;-70
2022/08/12 05:59:20;;;;;;;9.07;8.05;;;15.00;99.90;;;;;;5032482;28;20312;-70
2022/08/12 06:01:57;;;;;;;8.63;6.80;;;15.00;99.90;;;;;;5044621;28;20047;-70
2022/08/12 06:04:29;;;;;;;8.45;6.65;;;15.00;99.90;;;;;;5031733;28;20124;-70
2022/08/12 06:07:04;;;;;;;11.67;7.50;;;15.10;99.90;;;;;;5034492;28;20131;-70
2022/08/12 06:09:35;;;;;;;10.55;6.88;;;15.10;99.90;;;;;;5048667;28;20517;-70
2022/08/12 06:12:08;;;;;;;8.00;6.85;;;15.20;99.90;;;;;;5015556;28;21337;-69
2022/08/12 06:14:40;;;;;;;9.70;7.28;;;15.20;99.90;;;;;;5033607;28;20048;-70
2022/08/12 06:17:12;;;;;;;11.27;9.07;;;15.30;99.90;;;;;;5030892;28;20041;-70
2022/08/12 06:19:43;;;;;;;9.30;7.97;;;15.40;99.90;;;;;;5019822;28;20045;-71
2022/08/12 06:22:15;;;;;;;13.45;10.75;;;15.40;99.90;;;;;;5031062;28;20037;-70
2022/08/12 06:24:48;;;;;;;11.00;8.18;;;15.50;99.90;;;;;;5034466;28;20041;-70
2022/08/12 06:27:20;;;;;;;9.00;7.70;;;15.60;99.90;;;;;;5031874;28;20057;-70
2022/08/12 06:29:52;;;;;;;11.52;7.95;;;15.70;99.90;;;;;;5031253;28;20055;-70
2022/08/12 06:32:24;;;;;;;10.48;8.68;;;15.80;99.90;;;;;;5025015;28;20045;-70
2022/08/12 06:34:51;;;;;;;16.17;8.27;;;15.90;99.90;;;;;;5047060;28;20052;-71
2022/08/12 06:37:23;;;;;;;9.67;8.60;;;16.00;99.90;;;;;;5033936;28;20052;-71
2022/08/12 06:39:55;;;;;;;10.25;7.60;;;16.10;99.90;;;;;;5010673;28;20049;-70
2022/08/12 06:45:18;;;;;;;7.47;5.63;;;16.20;99.90;;;;;;5039344;28;20048;-71
2022/08/12 06:47:50;;;;;;;9.13;5.57;;;16.40;99.90;;;;;;5034791;28;20039;-71
2022/08/12 06:50:21;;;;;;;7.78;5.03;;;16.40;99.90;;;;;;5030607;28;20119;-72
2022/08/12 06:52:53;;;;;;;6.78;5.03;;;16.60;99.90;;;;;;5024991;28;20068;-71
2022/08/12 06:55:25;;;;;;;7.10;4.82;;;16.70;99.90;;;;;;5046685;28;20064;-70
2022/08/12 06:58:02;;;;;;;6.13;4.68;;;16.80;99.90;;;;;;5019048;28;20051;-70
2022/08/12 07:00:34;;;;;;;10.45;4.28;;;16.90;99.90;;;;;;5045057;28;20272;-72
2022/08/12 07:03:05;;;;;;;6.65;3.83;;;17.10;99.90;;;;;;5042501;28;20037;-71
2022/08/12 07:05:37;;;;;;;4.45;3.70;;;17.20;99.90;;;;;;5033485;28;20037;-71
2022/08/12 07:08:05;;;;;;;4.15;3.70;;;17.40;99.90;;;;;;5034447;28;20037;-71
2022/08/12 07:10:46;;;;;;;4.63;2.95;;;17.50;99.90;;;;;;5030238;28;20515;-71
2022/08/12 07:13:19;;;;;;;3.53;3.08;;;17.70;99.90;;;;;;5044002;28;20051;-74
2022/08/12 07:15:54;;;;;;;3.67;3.03;;;17.80;99.90;;;;;;5048742;28;20101;-71
2022/08/12 07:18:31;;;;;;;3.38;2.85;;;18.00;99.90;;;;;;5026866;28;20053;-71
2022/08/12 07:21:04;;;;;;;4.10;3.10;;;18.20;99.90;;;;;;5052749;28;20052;-71
2022/08/12 07:23:40;;;;;;;5.72;2.85;;;18.40;99.90;;;;;;5044654;28;20054;-72
2022/08/12 07:26:15;;;;;;;3.33;2.80;;;18.50;99.90;;;;;;5018319;28;20048;-71
2022/08/12 07:28:48;;;;;;;5.68;2.53;;;18.70;99.90;;;;;;5017868;28;20045;-71
2022/08/12 07:31:19;;;;;;;6.90;2.65;;;18.80;99.90;;;;;;5026393;28;20067;-73
2022/08/12 07:33:51;;;;;;;3.78;2.70;;;19.00;99.90;;;;;;5036888;28;20521;-70
2022/08/12 07:36:21;;;;;;;5.22;3.10;;;19.10;99.90;;;;;;5033780;28;20052;-71
2022/08/12 07:38:50;;;;;;;3.17;2.35;;;19.20;99.80;;;;;;5017366;28;20112;-72
2022/08/12 07:41:26;;;;;;;6.53;2.78;;;19.40;99.70;;;;;;5026450;28;20037;-71
2022/08/12 07:44:05;;;;;;;3.03;2.42;;;19.50;99.60;;;;;;5050892;28;20047;-70
2022/08/12 07:46:40;;;;;;;4.35;2.75;;;19.60;99.30;;;;;;5045550;28;20045;-70
2022/08/12 07:49:14;;;;;;;6.30;2.95;;;19.80;99.50;;;;;;5046351;28;20119;-71
2022/08/12 07:51:46;;;;;;;4.57;2.35;;;19.90;97.60;;;;;;5015906;28;20578;-71
2022/08/12 07:54:18;;;;;;;7.72;2.50;;;20.00;97.60;;;;;;5048682;28;20041;-71
2022/08/12 07:56:49;;;;;;;5.13;2.33;;;20.10;98.40;;;;;;5047606;28;20048;-70
2022/08/12 07:59:22;;;;;;;8.10;3.10;;;20.10;98.00;;;;;;5039319;28;20038;-71
2022/08/12 08:01:59;;;;;;;3.45;2.60;;;20.30;97.60;;;;;;5030204;28;20064;-71
2022/08/12 08:07:23;;;;;;;3.72;2.33;;;20.50;96.10;;;;;;5050890;28;20055;-71
2022/08/12 08:09:57;;;;;;;4.18;2.42;;;20.60;96.10;;;;;;5001340;28;20611;-71
2022/08/12 08:15:22;;;;;;;6.55;3.15;;;21.00;94.90;;;;;;5042127;28;20065;-70
2022/08/12 08:18:02;;;;;;;3.00;2.45;;;21.10;94.50;;;;;;5051387;28;20384;-71
2022/08/12 08:20:39;;;;;;;5.35;2.42;;;21.30;94.10;;;;;;5025248;28;20041;-72
2022/08/12 08:23:17;;;;;;;2.50;1.95;;;21.40;93.80;;;;;;5033151;28;20052;-71
2022/08/12 08:25:48;;;;;;;4.28;2.50;;;21.60;92.40;;;;;;5037489;28;20036;-72
2022/08/12 08:28:20;;;;;;;6.05;2.20;;;21.60;92.20;;;;;;5033325;28;20059;-71
2022/08/12 08:30:52;;;;;;;3.63;2.58;;;21.70;92.30;;;;;;5027686;28;20073;-70
2022/08/12 08:33:24;;;;;;;8.35;2.60;;;21.90;92.50;;;;;;5032258;28;20068;-70
2022/08/12 08:35:55;;;;;;;7.35;2.00;;;21.90;91.10;;;;;;5034383;28;20052;-70
2022/08/12 08:38:28;;;;;;;5.80;2.25;;;22.10;91.20;;;;;;5016213;28;20049;-70
2022/08/12 08:43:54;;;;;;;6.72;2.45;;;22.30;90.40;;;;;;5023830;28;20033;-71
2022/08/12 08:46:26;;;;;;;3.45;2.20;;;22.40;90.00;;;;;;5015920;28;20041;-70
2022/08/12 08:49:00;;;;;;;5.43;2.30;;;22.50;89.60;;;;;;5052114;28;20391;-71
2022/08/12 08:51:32;;;;;;;3.25;2.25;;;22.60;88.50;;;;;;5035248;28;20053;-70
2022/08/12 08:54:05;;;;;;;3.70;2.13;;;22.80;88.40;;;;;;5026700;28;20041;-71
2022/08/12 08:57:00;;;;;;;6.13;2.30;;;22.90;85.90;;;;;;5016627;28;20037;-70
2022/08/12 08:59:27;;;;;;;10.50;2.38;;;23.00;84.40;;;;;;5018140;28;20511;-71
2022/08/12 09:01:59;;;;;;;2.85;1.90;;;23.10;84.60;;;;;;5047129;28;20047;-71
2022/08/12 09:04:31;;;;;;;3.55;1.75;;;23.30;83.60;;;;;;5033871;28;20406;-71
2022/08/12 09:07:03;;;;;;;3.95;1.90;;;23.40;83.80;;;;;;5030842;28;20050;-71
2022/08/12 09:09:36;;;;;;;6.00;2.30;;;23.40;80.70;;;;;;5054979;22;20036;-72
2022/08/12 09:14:53;;;;;;;4.70;2.00;;;23.60;82.30;;;;;;5046996;28;20483;-69
2022/08/12 09:17:25;;;;;;;10.48;2.60;;;23.60;81.20;;;;;;5029176;28;20067;-70
2022/08/12 09:19:57;;;;;;;2.85;2.00;;;23.80;82.00;;;;;;5030686;28;20634;-70
2022/08/12 09:22:29;;;;;;;4.20;2.10;;;23.90;81.80;;;;;;5030533;28;20037;-69
2022/08/12 09:25:00;;;;;;;4.53;2.15;;;24.00;81.10;;;;;;5033277;28;20040;-69
2022/08/12 09:27:27;;;;;;;4.57;2.00;;;24.10;80.50;;;;;;5017518;28;20049;-70
2022/08/12 09:30:02;;;;;;;3.55;2.20;;;24.30;80.40;;;;;;5029098;28;20083;-70
2022/08/12 09:32:34;;;;;;;10.00;2.00;;;24.30;77.70;;;;;;5050676;28;20049;-69
2022/08/12 09:35:06;;;;;;;2.55;2.35;;;24.40;78.70;;;;;;5032150;28;20044;-69
2022/08/12 09:37:38;;;;;;;3.58;2.17;;;24.40;79.30;;;;;;5051441;28;20533;-70
2022/08/12 09:40:06;;;;;;;19.10;3.50;;;24.40;77.30;;;;;;5032440;28;20095;-70
2022/08/12 09:45:30;;;;;;;5.22;2.72;;;24.50;78.30;;;;;;5048023;28;20045;-70
2022/08/12 09:48:07;;;;;;;4.43;2.28;;;24.60;76.00;;;;;;5011550;28;20053;-69
2022/08/12 09:50:39;;;;;;;4.38;2.00;;;24.50;75.80;;;;;;5030454;28;20060;-69
2022/08/12 09:53:16;;;;;;;6.35;2.38;;;24.60;74.90;;;;;;5032924;28;20068;-69
2022/08/12 09:55:53;;;;;;;3.03;1.98;;;24.70;75.60;;;;;;5049482;28;20045;-70
2022/08/12 09:58:29;;;;;;;6.60;2.30;;;24.90;74.90;;;;;;5048129;28;20037;-69
2022/08/12 10:01:00;;;;;;;4.47;1.88;;;25.00;72.60;;;;;;5049472;28;20036;-69
2022/08/12 10:03:35;;;;;;;3.95;2.10;;;25.00;74.00;;;;;;5048142;28;20043;-69
2022/08/12 10:06:07;;;;;;;5.07;2.20;;;25.00;72.80;;;;;;5032732;28;20052;-69
2022/08/12 10:08:39;;;;;;;4.47;2.10;;;25.00;73.20;;;;;;5051043;28;20051;-69
2022/08/12 10:13:56;;;;;;;2.97;2.13;;;24.90;71.60;;;;;;5048961;28;20053;-69
2022/08/12 10:16:31;;;;;;;5.72;2.67;;;24.70;72.30;;;;;;5046985;28;20507;-69
2022/08/12 10:19:04;;;;;;;9.15;2.50;;;24.80;72.20;;;;;;5032223;28;20096;-70
2022/08/12 10:21:39;;;;;;;2.67;1.80;;;24.80;72.20;;;;;;5045818;28;20033;-70
2022/08/12 10:24:21;;;;;;;6.85;2.20;;;24.60;72.70;;;;;;5050123;28;20537;-70
2022/08/12 10:29:46;;;;;;;8.05;2.28;;;24.30;72.50;;;;;;5045504;28;20052;-69
2022/08/12 10:32:20;;;;;;;4.60;1.95;;;24.30;73.90;;;;;;5047986;28;20513;-69
2022/08/12 10:34:52;;;;;;;4.05;2.17;;;24.50;72.30;;;;;;5048792;28;20068;-69
2022/08/12 10:37:24;;;;;;;4.47;2.17;;;24.90;71.80;;;;;;5047120;28;20056;-69
2022/08/12 10:39:56;;;;;;;3.65;1.83;;;25.20;71.40;;;;;;5015407;28;20489;-69
2022/08/12 10:45:30;;;;;;;3.83;1.90;;;25.60;69.60;;;;;;5046971;28;20049;-69
2022/08/12 10:48:01;;;;;;;4.70;1.85;;;25.90;70.70;;;;;;5033255;28;20051;-69
2022/08/12 10:50:34;;;;;;;2.88;1.92;;;25.80;67.30;;;;;;5029522;28;20047;-69
2022/08/12 10:53:08;;;;;;;5.07;1.90;;;25.50;67.60;;;;;;5029539;28;20132;-69
2022/08/12 10:55:40;;;;;;;3.45;1.90;;;25.20;67.60;;;;;;5031757;28;20127;-69
2022/08/12 10:58:13;;;;;;;4.40;1.85;;;25.20;67.70;;;;;;5032253;28;20063;-70
2022/08/12 11:00:45;;;;;;;3.58;2.05;;;25.20;68.10;;;;;;5045945;28;20036;-69
2022/08/12 11:03:17;;;;;;;2.95;2.20;;;25.40;68.40;;;;;;5048572;28;20044;-69
2022/08/12 11:05:49;;;;;;;3.83;1.95;;;25.60;67.30;;;;;;5029601;28;20075;-70
2022/08/12 11:08:21;;;;;;;2.20;2.00;;;25.80;66.80;;;;;;5050291;28;20041;-70
2022/08/12 11:10:53;;;;;;;3.15;1.83;;;25.90;67.90;;;;;;5045061;28;20295;-69
2022/08/12 11:13:25;;;;;;;2.28;1.75;;;25.80;66.30;;;;;;5049719;28;20052;-69
2022/08/12 11:15:57;;;;;;;4.95;2.20;;;25.60;66.70;;;;;;5048156;28;20033;-69
2022/08/12 11:18:29;;;;;;;4.95;2.38;;;25.40;66.10;;;;;;5049467;28;20050;-69
2022/08/12 11:21:01;;;;;;;4.50;2.20;;;25.20;65.50;;;;;;5048494;28;20037;-69
2022/08/12 11:23:33;;;;;;;3.05;2.00;;;25.00;67.40;;;;;;5049563;28;20033;-69
2022/08/12 11:26:05;;;;;;;3.67;2.03;;;24.90;66.50;;;;;;5032701;28;20365;-69
2022/08/12 11:28:37;;;;;;;3.30;1.85;;;25.10;67.50;;;;;;5027271;28;20045;-69
2022/08/12 11:31:09;;;;;;;3.10;1.40;;;25.20;66.40;;;;;;5030020;28;20049;-69
2022/08/12 11:33:42;;;;;;;4.20;1.73;;;25.50;65.10;;;;;;5028439;28;20039;-69
2022/08/12 11:36:14;;;;;;;;;;;25.70;66.70;;;;;;5048233;28;20646;-69
2022/08/12 11:38:46;;;;;;;3.85;1.90;;;26.00;65.90;;;;;;5048754;28;19920;-69
2022/08/12 11:41:12;;;;;;;3.47;2.35;;;26.10;65.30;;;;;;5047937;28;20037;-69
2022/08/12 11:43:44;;;;;;;3.60;1.77;;;26.00;65.10;;;;;;5029711;28;20044;-69
2022/08/12 11:46:19;;;;;;;5.00;1.95;;;25.90;65.30;;;;;;5048852;28;20055;-69
2022/08/12 11:48:50;;;;;;;4.60;1.83;;;25.80;65.50;;;;;;5049355;28;20052;-69
2022/08/12 11:51:22;;;;;;;3.25;2.30;;;25.80;65.00;;;;;;5044259;28;20050;-69
2022/08/12 11:53:54;;;;;;;3.03;1.60;;;25.90;65.20;;;;;;5048695;28;20067;-69
2022/08/12 11:56:26;;;;;;;2.70;1.77;;;26.10;64.30;;;;;;5052350;28;20094;-69
2022/08/12 11:58:58;;;;;;;2.70;1.75;;;26.40;64.20;;;;;;5052133;28;20043;-69
2022/08/12 12:01:30;;;;;;;2.30;1.73;;;26.80;63.20;;;;;;5051393;28;20402;-70
2022/08/12 12:04:02;;;;;;;2.67;1.70;;;27.00;62.20;;;;;;5052166;28;20049;-69
2022/08/12 12:06:34;;;;;;;3.85;2.00;;;27.20;61.80;;;;;;5052882;28;20722;-69
2022/08/12 12:09:06;;;;;;;2.92;1.95;;;27.30;62.80;;;;;;5032504;28;20052;-69
2022/08/12 12:11:37;;;;;;;3.85;1.70;;;27.30;60.40;;;;;;5032768;28;20044;-69
2022/08/12 12:14:09;;;;;;;4.13;1.60;;;27.30;61.50;;;;;;5050677;28;20460;-70
2022/08/12 12:16:41;;;;;;;2.90;1.50;;;27.40;61.50;;;;;;5052424;28;20045;-69
2022/08/12 12:19:13;;;;;;;3.55;1.60;;;27.50;60.70;;;;;;5051198;28;20065;-69
2022/08/12 12:21:41;;;;;;;4.95;1.80;;;27.60;59.50;;;;;;5031678;28;20063;-70
2022/08/12 12:24:12;;;;;;;2.22;1.70;;;27.60;59.90;;;;;;5047485;28;20045;-69
2022/08/12 12:26:44;;;;;;;3.53;1.60;;;27.60;60.00;;;;;;5041558;28;20120;-69
2022/08/12 12:29:16;;;;;;;4.28;1.90;;;27.70;59.20;;;;;;5045072;28;20049;-69
2022/08/12 12:31:48;;;;;;;5.22;2.15;;;27.70;58.50;;;;;;5047942;28;20037;-70
2022/08/12 12:34:19;;;;;;;3.08;1.73;;;27.70;57.50;;;;;;5040710;28;20041;-69
2022/08/12 12:36:51;;;;;;;1.70;1.60;;;27.50;57.80;;;;;;5050916;28;20047;-70
2022/08/12 12:39:23;;;;;;;3.80;1.70;;;27.20;57.70;;;;;;5049348;28;20072;-70
2022/08/12 12:41:54;;;;;;;2.75;1.70;;;27.20;58.90;;;;;;5048074;28;20051;-70
2022/08/12 12:44:26;;;;;;;4.22;1.77;;;27.30;58.50;;;;;;5049624;28;20051;-70
2022/08/12 12:46:58;;;;;;;5.38;1.65;;;27.40;58.60;;;;;;5028137;28;20042;-70
2022/08/12 12:49:25;;;;;;;2.13;1.52;;;27.30;57.60;;;;;;5026651;28;20446;-69
2022/08/12 12:51:56;;;;;;;4.47;1.83;;;27.10;57.70;;;;;;5027801;28;20052;-70
2022/08/12 12:54:28;;;;;;;2.17;1.70;;;26.90;57.90;;;;;;5050354;28;20116;-70
2022/08/12 12:57:00;;;;;;;4.10;1.75;;;26.60;58.40;;;;;;5051719;28;20039;-70
2022/08/12 12:59:31;;;;;;;2.50;1.58;;;26.60;58.50;;;;;;5048395;28;20033;-70
2022/08/12 13:02:06;;;;;;;2.95;1.73;;;26.60;58.10;;;;;;5032764;28;20133;-70
2022/08/12 13:04:37;;;;;;;4.30;1.70;;;26.90;58.20;;;;;;5049184;28;20029;-70
2022/08/12 13:07:09;;;;;;;3.67;1.90;;;27.10;57.60;;;;;;5033717;28;20045;-70
2022/08/12 13:09:41;;;;;;;1.73;1.27;;;27.10;56.70;;;;;;5046612;28;20047;-70
2022/08/12 13:12:13;;;;;;;2.97;1.40;;;27.20;56.20;;;;;;5050959;28;20060;-69
2022/08/12 13:14:45;;;;;;;4.37;1.47;;;27.30;55.20;;;;;;5049109;28;20041;-69
2022/08/12 13:17:20;;;;;;;4.10;1.30;;;27.40;53.70;;;;;;5050818;28;20040;-70
2022/08/12 13:19:53;;;;;;;3.83;1.58;;;27.60;56.30;;;;;;5048149;28;20518;-69
2022/08/12 13:22:25;;;;;;;1.95;1.20;;;27.70;55.00;;;;;;5019155;28;20033;-70
2022/08/12 13:24:58;;;;;;;1.55;1.20;;;27.90;54.40;;;;;;5049979;28;20043;-69
2022/08/12 13:27:40;;;;;;;4.00;1.33;;;28.00;54.70;;;;;;5051438;28;20040;-69
2022/08/12 13:30:14;;;;;;;3.38;2.03;;;28.20;53.80;;;;;;5046856;28;20041;-70
2022/08/12 13:32:49;;;;;;;1.88;1.10;;;28.30;53.50;;;;;;5050519;28;20041;-70
2022/08/12 13:35:20;;;;;;;3.95;1.27;;;28.40;51.90;;;;;;5049066;28;20036;-71
2022/08/12 13:37:55;;;;;;;3.38;1.42;;;28.40;51.60;;;;;;5029070;28;20044;-71
2022/08/12 13:40:29;;;;;;;2.65;1.50;;;28.50;51.70;;;;;;5048218;28;20040;-70
2022/08/12 13:43:05;;;;;;;3.20;1.30;;;28.50;51.80;;;;;;5030450;28;20046;-70
2022/08/12 13:45:37;;;;;;;5.65;1.10;;;28.60;51.20;;;;;;5048369;28;20387;-70
2022/08/12 13:48:09;;;;;;;4.35;1.05;;;28.40;51.50;;;;;;5049863;28;20048;-70
2022/08/12 13:50:42;;;;;;;5.25;1.45;;;28.40;51.20;;;;;;5047818;28;20033;-70
2022/08/12 13:53:16;;;;;;;2.50;1.35;;;28.40;50.40;;;;;;5047231;28;20068;-70
2022/08/12 13:55:50;;;;;;;2.20;1.20;;;28.50;50.60;;;;;;5049029;28;20037;-70
2022/08/12 13:58:22;;;;;;;3.05;1.15;;;28.60;50.70;;;;;;5050767;28;20375;-70
2022/08/12 14:00:55;;;;;;;3.30;1.35;;;28.50;49.50;;;;;;5047919;28;20049;-69
2022/08/12 14:03:27;;;;;;;8.38;2.15;;;28.50;49.80;;;;;;5050749;28;20514;-69
2022/08/12 14:06:03;;;;;;;8.48;1.60;;;28.60;50.30;;;;;;5050032;28;20396;-69
2022/08/12 14:08:34;;;;;;;2.15;0.80;;;28.70;50.30;;;;;;5051012;28;20047;-69
2022/08/12 14:11:06;;;;;;;4.03;1.52;;;28.90;49.30;;;;;;5044737;28;20041;-69
2022/08/12 14:13:38;;;;;;;1.40;0.93;;;28.80;48.70;;;;;;5038573;28;20037;-69
2022/08/12 14:16:16;;;;;;;2.63;1.77;;;28.80;47.80;;;;;;5046883;28;20037;-69
2022/08/12 14:18:48;;;;;;;3.40;1.20;;;28.90;49.30;;;;;;5050309;28;20041;-70
2022/08/12 14:21:20;;;;;;;3.00;1.10;;;29.10;50.00;;;;;;5047267;28;20033;-69
2022/08/12 14:23:52;;;;;;;4.13;1.27;;;29.30;48.70;;;;;;5047025;28;20636;-69
2022/08/12 14:26:24;;;;;;;1.85;1.17;;;29.40;48.70;;;;;;5046975;28;20037;-69
2022/08/12 14:28:55;;;;;;;1.92;1.30;;;29.50;48.70;;;;;;5047032;28;20043;-69
2022/08/12 14:31:27;;;;;;;2.55;1.20;;;29.70;48.00;;;;;;5046913;28;20045;-70
2022/08/12 14:33:59;;;;;;;4.68;1.40;;;29.80;47.90;;;;;;5047694;28;20041;-70
2022/08/12 14:36:31;;;;;;;4.40;1.25;;;30.00;48.00;;;;;;5049270;28;20037;-70
2022/08/12 14:39:04;;;;;;;3.17;1.27;;;30.00;48.00;;;;;;5031572;28;20055;-70
2022/08/12 14:41:36;;;;;;;3.20;1.30;;;30.20;48.50;;;;;;5046270;28;20041;-69
2022/08/12 14:44:08;;;;;;;3.22;1.23;;;30.10;46.90;;;;;;5047198;28;20033;-70
2022/08/12 14:46:41;;;;;;;1.67;1.20;;;30.10;46.90;;;;;;5050503;28;20442;-70
2022/08/12 14:49:12;;;;;;;;;;;30.20;47.70;;;;;;5050450;28;20128;-69
2022/08/12 14:51:44;;;;;;;3.83;1.10;;;30.40;47.10;;;;;;5048656;28;19946;-70
2022/08/12 14:54:18;;;;;;;1.98;1.63;;;30.20;46.20;;;;;;5045827;28;20044;-70
2022/08/12 14:56:50;;;;;;;1.85;1.27;;;30.00;47.20;;;;;;5048764;28;20056;-69
2022/08/12 15:02:13;;;;;;;3.22;1.25;;;30.40;46.50;;;;;;5049727;28;20525;-69
2022/08/12 15:04:47;;;;;;;3.95;1.60;;;30.70;47.10;;;;;;5046692;28;20045;-70
2022/08/12 15:07:13;;;;;;;2.97;1.33;;;30.80;46.40;;;;;;5049666;28;20049;-69
2022/08/12 15:09:45;;;;;;;1.60;1.50;;;30.80;46.50;;;;;;5046439;28;20080;-69